Observation data for Gail on 04/23/2019      Previous  Date  Next       Current Mesonet Observations  Soil Data  Daily Summary Page  Observations in Plain Language
KGGS 230500Z 02008KT 16/13 A30 RMK A01 T01640132  RH  084%=      5-min Rain = 0
KGGS 230505Z 01008KT 16/13 A30 RMK A01 T01640131  RH  084%=      5-min Rain = 0
KGGS 230510Z 02007KT 16/13 A30 RMK A01 T01640132  RH  085%=      5-min Rain = 0
KGGS 230515Z 03006KT 16/13 A30 RMK A01 T01620132  RH  086%=      5-min Rain = 0
KGGS 230520Z 03006KT 16/13 A30 RMK A01 T01620133  RH  086%=      5-min Rain = 0
KGGS 230525Z 03006KT 16/13 A30 RMK A01 T01600132  RH  087%=      5-min Rain = 0
KGGS 230530Z 03006KT 16/13 A2999 RMK A01 T01590132  RH  087%=      5-min Rain = 0
KGGS 230535Z 03006KT 16/13 A2999 RMK A01 T01580132  RH  088%=      5-min Rain = 0
KGGS 230540Z 03006KT 16/13 A2999 RMK A01 T01570131  RH  088%=      5-min Rain = 0
KGGS 230545Z 03006KT 16/13 A2998 RMK A01 T01560131  RH  088%=      5-min Rain = 0
KGGS 230550Z 03005KT 16/13 A2998 RMK A01 T01550130  RH  089%=      5-min Rain = 0
KGGS 230555Z 01005KT 15/13 A2999 RMK A01 T01530129  RH  089%=      5-min Rain = 0
KGGS 230600Z 01005KT 15/13 A2999 RMK A01 T01510128  RH  089%=      5-min Rain = 0
KGGS 230605Z 36005KT 15/13 A2999 RMK A01 T01500127  RH  090%=      5-min Rain = 0
KGGS 230610Z 35006KT 15/13 A2998 RMK A01 T01480126  RH  090%=      5-min Rain = 0
KGGS 230615Z 35006KT 15/13 A2998 RMK A01 T01470126  RH  090%=      5-min Rain = 0
KGGS 230620Z 35006KT 15/13 A2998 RMK A01 T01460125  RH  091%=      5-min Rain = 0
KGGS 230625Z 35007KT 15/13 A2998 RMK A01 T01470126  RH  091%=      5-min Rain = 0
KGGS 230630Z 36008KT 15/13 A2998 RMK A01 T01470127  RH  091%=      5-min Rain = 0
KGGS 230635Z 36007KT 15/13 A2997 RMK A01 T01470126  RH  091%=      5-min Rain = 0
KGGS 230640Z 35007KT 15/13 A2998 RMK A01 T01470126  RH  091%=      5-min Rain = 0
KGGS 230645Z 35005KT 15/13 A2998 RMK A01 T01460126  RH  091%=      5-min Rain = 0
KGGS 230650Z 35005KT 15/13 A2998 RMK A01 T01450125  RH  091%=      5-min Rain = 0
KGGS 230655Z 35006KT 15/13 A2997 RMK A01 T01460126  RH  091%=      5-min Rain = 0
KGGS 230700Z 34006KT 15/13 A2998 RMK A01 T01450126  RH  092%=      5-min Rain = 0
KGGS 230705Z 34006KT 15/13 A2998 RMK A01 T01450126  RH  092%=      5-min Rain = 0
KGGS 230710Z 34006KT 15/13 A2998 RMK A01 T01450126  RH  092%=      5-min Rain = 0
KGGS 230715Z 33007KT 14/13 A2998 RMK A01 T01440126  RH  092%=      5-min Rain = 0
KGGS 230720Z 34007KT 15/13 A2998 RMK A01 T01450127  RH  093%=      5-min Rain = 0
KGGS 230725Z 35005KT 15/13 A2998 RMK A01 T01460129  RH  093%=      5-min Rain = 0
KGGS 230730Z 34006KT 15/13 A2998 RMK A01 T01470130  RH  093%=      5-min Rain = 0
KGGS 230735Z 34007KT 15/13 A2998 RMK A01 T01470130  RH  093%=      5-min Rain = 0
KGGS 230740Z 34006KT 15/13 A2998 RMK A01 T01480131  RH  094%=      5-min Rain = 0
KGGS 230745Z 34006KT 15/13 A2999 RMK A01 T01480132  RH  094%=      5-min Rain = 0
KGGS 230750Z 35008KT 15/13 A2998 RMK A01 T01490133  RH  094%=      5-min Rain = 0
KGGS 230755Z 34007KT 15/13 A2999 RMK A01 T01500134  RH  094%=      5-min Rain = 0
KGGS 230800Z 35007KT 15/14 A2999 RMK A01 T01510135  RH  094%=      5-min Rain = 0
KGGS 230805Z 36007KT 15/14 A2998 RMK A01 T01510136  RH  094%=      5-min Rain = 0
KGGS 230810Z 36007KT 15/14 A2998 RMK A01 T01520137  RH  094%=      5-min Rain = 0
KGGS 230815Z 00008KT 15/14 A2998 RMK A01 T01530137  RH  094%=      5-min Rain = 0
KGGS 230820Z 36007KT 15/14 A2997 RMK A01 T01540138  RH  094%=      5-min Rain = 0
KGGS 230825Z 36007KT 15/14 A2997 RMK A01 T01540138  RH  094%=      5-min Rain = 0
KGGS 230830Z 35008KT 15/14 A2998 RMK A01 T01540139  RH  094%=      5-min Rain = 0
KGGS 230835Z 00010KT 15/14 A2997 RMK A01 T01530138  RH  094%=      5-min Rain = 0
KGGS 230840Z 00008KT 15/14 A2998 RMK A01 T01520136  RH  094%=      5-min Rain = 0.02
KGGS 230845Z 36004KT 15/14 A30 RMK A01 T01500135  RH  094%=      5-min Rain = 0.37
KGGS 230850Z 36012G17KT 15/13 A2997 RMK A01 T01460130  RH  094%=      5-min Rain = 0.17
KGGS 230855Z 02006G13KT 15/13 A2997 RMK A01 T01460131  RH  095%=      5-min Rain = 0.01
KGGS 230900Z 02005KT 15/13 A2997 RMK A01 T01450130  RH  095%=      5-min Rain = 0
KGGS 230905Z 35005KT 14/13 A2996 RMK A01 T01440130  RH  095%=      5-min Rain = 0
KGGS 230910Z 01003KT 14/13 A2996 RMK A01 T01430129  RH  095%=      5-min Rain = 0
KGGS 230915Z 00003KT 14/13 A2996 RMK A01 T01420128  RH  095%=      5-min Rain = 0
KGGS 230920Z 35004KT 14/13 A2997 RMK A01 T01400126  RH  095%=      5-min Rain = 0
KGGS 230925Z 36004KT 14/13 A2997 RMK A01 T01400127  RH  095%=      5-min Rain = 0
KGGS 230930Z 34005KT 14/13 A2997 RMK A01 T01420128  RH  095%=      5-min Rain = 0
KGGS 230935Z 34005KT 14/13 A2997 RMK A01 T01430130  RH  095%=      5-min Rain = 0
KGGS 230940Z 34005KT 15/13 A2997 RMK A01 T01450131  RH  095%=      5-min Rain = 0
KGGS 230945Z 34005KT 15/13 A2998 RMK A01 T01450132  RH  095%=      5-min Rain = 0
KGGS 230950Z 36005KT 15/13 A2997 RMK A01 T01450132  RH  095%=      5-min Rain = 0
KGGS 230955Z 00005KT 15/13 A2997 RMK A01 T01460132  RH  095%=      5-min Rain = 0
KGGS 231000Z 00004KT 15/13 A2997 RMK A01 T01460133  RH  095%=      5-min Rain = 0
KGGS 231005Z 34006KT 15/13 A2998 RMK A01 T01460133  RH  096%=      5-min Rain = 0
KGGS 231010Z 35007KT 15/13 A2998 RMK A01 T01460133  RH  096%=      5-min Rain = 0
KGGS 231015Z 35009KT 15/13 A2998 RMK A01 T01460133  RH  096%=      5-min Rain = 0
KGGS 231020Z 35008KT 15/13 A2998 RMK A01 T01460133  RH  096%=      5-min Rain = 0
KGGS 231025Z 35010KT 15/13 A2998 RMK A01 T01450132  RH  096%=      5-min Rain = 0
KGGS 231030Z 35010KT 15/13 A2998 RMK A01 T01450132  RH  096%=      5-min Rain = 0
KGGS 231035Z 00009KT 14/13 A2998 RMK A01 T01440131  RH  096%=      5-min Rain = 0
KGGS 231040Z 00009KT 14/13 A2998 RMK A01 T01440131  RH  096%=      5-min Rain = 0
KGGS 231045Z 01008KT 14/13 A2998 RMK A01 T01440131  RH  096%=      5-min Rain = 0
KGGS 231050Z 00008KT 14/13 A2998 RMK A01 T01440132  RH  096%=      5-min Rain = 0
KGGS 231055Z 35008KT 15/13 A2999 RMK A01 T01450132  RH  096%=      5-min Rain = 0
KGGS 231100Z 35008KT 15/13 A2999 RMK A01 T01450132  RH  096%=      5-min Rain = 0
KGGS 231105Z 36009KT 14/13 A2999 RMK A01 T01440131  RH  096%=      5-min Rain = 0
KGGS 231110Z 00008KT 14/13 A2999 RMK A01 T01440131  RH  096%=      5-min Rain = 0
KGGS 231115Z 00008KT 14/13 A2999 RMK A01 T01440131  RH  096%=      5-min Rain = 0
KGGS 231120Z 01008KT 14/13 A2999 RMK A01 T01440131  RH  096%=      5-min Rain = 0
KGGS 231125Z 01007KT 14/13 A2999 RMK A01 T01440131  RH  096%=      5-min Rain = 0
KGGS 231130Z 00007KT 14/13 A2999 RMK A01 T01430131  RH  096%=      5-min Rain = 0
KGGS 231135Z 00007KT 14/13 A2999 RMK A01 T01440131  RH  096%=      5-min Rain = 0
KGGS 231140Z 01008KT 14/13 A2999 RMK A01 T01430130  RH  096%=      5-min Rain = 0
KGGS 231145Z 01007KT 14/13 A2999 RMK A01 T01430130  RH  096%=      5-min Rain = 0
KGGS 231150Z 01007KT 14/13 A2999 RMK A01 T01420130  RH  096%=      5-min Rain = 0
KGGS 231155Z 02008KT 14/13 A2999 RMK A01 T01420129  RH  096%=      5-min Rain = 0
KGGS 231200Z 02008KT 14/13 A2999 RMK A01 T01420129  RH  096%=      5-min Rain = 0
KGGS 231205Z 03007KT 14/13 A2999 RMK A01 T01430130  RH  096%=      5-min Rain = 0
KGGS 231210Z 02006KT 14/13 A30 RMK A01 T01430130  RH  096%=      5-min Rain = 0
KGGS 231215Z 03006KT 14/13 A30 RMK A01 T01430130  RH  096%=      5-min Rain = 0
KGGS 231220Z 04005KT 14/13 A30 RMK A01 T01430130  RH  096%=      5-min Rain = 0
KGGS 231225Z 04005KT 14/13 A30 RMK A01 T01440131  RH  096%=      5-min Rain = 0
KGGS 231230Z 02006KT 14/13 A30 RMK A01 T01440131  RH  096%=      5-min Rain = 0
KGGS 231235Z 02006KT 15/13 A30 RMK A01 T01450131  RH  096%=      5-min Rain = 0
KGGS 231240Z 02005KT 15/13 A3001 RMK A01 T01450132  RH  096%=      5-min Rain = 0
KGGS 231245Z 01005KT 15/13 A3001 RMK A01 T01450132  RH  096%=      5-min Rain = 0
KGGS 231250Z 36005KT 15/13 A3001 RMK A01 T01450132  RH  096%=      5-min Rain = 0
KGGS 231255Z 00006KT 15/13 A3001 RMK A01 T01450132  RH  096%=      5-min Rain = 0
KGGS 231300Z 35007KT 15/13 A3001 RMK A01 T01450132  RH  096%=      5-min Rain = 0.01
KGGS 231305Z 35009KT 14/13 A3002 RMK A01 T01440131  RH  095%=      5-min Rain = 0.01
KGGS 231310Z 34010KT 14/13 A3002 RMK A01 T01440130  RH  095%=      5-min Rain = 0
KGGS 231315Z 36010KT 14/13 A3002 RMK A01 T01430130  RH  095%=      5-min Rain = 0
KGGS 231320Z 36011KT 14/13 A3002 RMK A01 T01430129  RH  095%=      5-min Rain = 0.02
KGGS 231325Z 00011KT 14/13 A3003 RMK A01 T01420129  RH  095%=      5-min Rain = 0
KGGS 231330Z 35011KT 14/13 A3003 RMK A01 T01420129  RH  095%=      5-min Rain = 0
KGGS 231335Z 34011KT 14/13 A3004 RMK A01 T01410128  RH  095%=      5-min Rain = 0.01
KGGS 231340Z 01010KT 14/13 A3003 RMK A01 T01410128  RH  096%=      5-min Rain = 0
KGGS 231345Z 01010KT 14/13 A3003 RMK A01 T01400127  RH  096%=      5-min Rain = 0
KGGS 231350Z 01010KT 14/13 A3003 RMK A01 T01400128  RH  096%=      5-min Rain = 0
KGGS 231355Z 01010KT 14/13 A3002 RMK A01 T01400128  RH  096%=      5-min Rain = 0
KGGS 231400Z 01010KT 14/13 A3003 RMK A01 T01400128  RH  096%=      5-min Rain = 0.01
KGGS 231405Z 03010KT 14/13 A3002 RMK A01 T01400127  RH  096%=      5-min Rain = 0
KGGS 231410Z 02010KT 14/13 A3001 RMK A01 T01400127  RH  096%=      5-min Rain = 0
KGGS 231415Z 03009KT 14/13 A3001 RMK A01 T01390127  RH  096%=      5-min Rain = 0.01
KGGS 231420Z 06006KT 14/13 A3003 RMK A01 T01390127  RH  096%=      5-min Rain = 0
KGGS 231425Z 06006KT 14/13 A3004 RMK A01 T01400128  RH  096%=      5-min Rain = 0.01
KGGS 231430Z 03011G17KT 14/13 A3002 RMK A01 T01400127  RH  096%=      5-min Rain = 0.02
KGGS 231435Z 03012KT 14/13 A3001 RMK A01 T01400127  RH  096%=      5-min Rain = 0.01
KGGS 231440Z 06007G13KT 14/13 A3002 RMK A01 T01400128  RH  096%=      5-min Rain = 0
KGGS 231445Z 13010G15KT 14/13 A3005 RMK A01 T01400128  RH  096%=      5-min Rain = 0.02
KGGS 231450Z 11015G21KT 14/13 A3004 RMK A01 T01400128  RH  096%=      5-min Rain = 0.06
KGGS 231455Z 06013G18KT 14/13 A3001 RMK A01 T01400128  RH  096%=      5-min Rain = 0.03
KGGS 231500Z 06014G21KT 14/13 A2999 RMK A01 T01400128  RH  096%=      5-min Rain = 0.01
KGGS 231505Z 08013G19KT 14/13 A2999 RMK A01 T01420130  RH  096%=      5-min Rain = 0
KGGS 231510Z 09007G12KT 15/13 A3001 RMK A01 T01450133  RH  096%=      5-min Rain = 0
KGGS 231515Z 09010KT 15/14 A3001 RMK A01 T01480135  RH  096%=      5-min Rain = 0
KGGS 231520Z 08010G15KT 15/13 A3002 RMK A01 T01450131  RH  096%=      5-min Rain = 0
KGGS 231525Z 09009G14KT 15/14 A3002 RMK A01 T01510137  RH  095%=      5-min Rain = 0
KGGS 231530Z 09009G15KT 16/14 A3003 RMK A01 T01560141  RH  095%=      5-min Rain = 0
KGGS 231535Z 09009KT 16/14 A3002 RMK A01 T01580143  RH  095%=      5-min Rain = 0
KGGS 231540Z 08009G14KT 16/14 A3002 RMK A01 T01600143  RH  094%=      5-min Rain = 0
KGGS 231545Z 08009KT 16/14 A3002 RMK A01 T01630144  RH  093%=      5-min Rain = 0
KGGS 231550Z 08009KT 17/15 A3002 RMK A01 T01680147  RH  091%=      5-min Rain = 0
KGGS 231555Z 06009KT 17/15 A3002 RMK A01 T01690145  RH  090%=      5-min Rain = 0
KGGS 231600Z 06009G14KT 17/14 A3002 RMK A01 T01720144  RH  087%=      5-min Rain = 0
KGGS 231605Z 07010KT 17/14 A3002 RMK A01 T01700138  RH  085%=      5-min Rain = 0
KGGS 231610Z 08009KT 17/14 A3002 RMK A01 T01710138  RH  084%=      5-min Rain = 0
KGGS 231615Z 06008KT 18/14 A3003 RMK A01 T01780141  RH  082%=      5-min Rain = 0
KGGS 231620Z 06008KT 18/14 A3003 RMK A01 T01780137  RH  080%=      5-min Rain = 0
KGGS 231625Z 05008KT 18/14 A3003 RMK A01 T01790135  RH  079%=      5-min Rain = 0
KGGS 231630Z 05007KT 18/14 A3004 RMK A01 T01790136  RH  079%=      5-min Rain = 0
KGGS 231635Z 04009KT 18/14 A3003 RMK A01 T01780136  RH  080%=      5-min Rain = 0
KGGS 231640Z 05009KT 18/14 A3002 RMK A01 T01780135  RH  079%=      5-min Rain = 0
KGGS 231645Z 05010KT 18/14 A3002 RMK A01 T01820139  RH  079%=      5-min Rain = 0
KGGS 231650Z 04010KT 19/14 A3003 RMK A01 T01850140  RH  078%=      5-min Rain = 0
KGGS 231655Z 04008KT 19/14 A3003 RMK A01 T01860140  RH  077%=      5-min Rain = 0
KGGS 231700Z 05008KT 18/14 A3003 RMK A01 T01840135  RH  076%=      5-min Rain = 0
KGGS 231705Z 04006KT 18/14 A3003 RMK A01 T01840136  RH  076%=      5-min Rain = 0
KGGS 231710Z 04007KT 19/14 A3003 RMK A01 T01860139  RH  077%=      5-min Rain = 0
KGGS 231715Z 02007KT 19/14 A3003 RMK A01 T01880139  RH  076%=      5-min Rain = 0
KGGS 231720Z 03008KT 19/14 A3003 RMK A01 T01850135  RH  076%=      5-min Rain = 0
KGGS 231725Z 03006KT 19/14 A3003 RMK A01 T01860135  RH  075%=      5-min Rain = 0
KGGS 231730Z 03007KT 19/13 A3003 RMK A01 T01860134  RH  075%=      5-min Rain = 0
KGGS 231735Z 04007KT 19/14 A3003 RMK A01 T01860135  RH  075%=      5-min Rain = 0
KGGS 231740Z 03007KT 19/14 A3003 RMK A01 T01890137  RH  075%=      5-min Rain = 0
KGGS 231745Z 04007KT 19/14 A3002 RMK A01 T01930138  RH  073%=      5-min Rain = 0
KGGS 231750Z 03006KT 19/13 A3002 RMK A01 T01900131  RH  072%=      5-min Rain = 0
KGGS 231755Z 02005KT 19/13 A3002 RMK A01 T01880132  RH  073%=      5-min Rain = 0
KGGS 231800Z 03005KT 19/13 A3002 RMK A01 T01890133  RH  073%=      5-min Rain = 0
KGGS 231805Z 03006KT 19/13 A3002 RMK A01 T01890132  RH  072%=      5-min Rain = 0
KGGS 231810Z 02006KT 19/13 A3002 RMK A01 T01920134  RH  072%=      5-min Rain = 0
KGGS 231815Z 00007KT 19/13 A3001 RMK A01 T01930133  RH  071%=      5-min Rain = 0
KGGS 231820Z 01007KT 19/13 A3001 RMK A01 T01920132  RH  071%=      5-min Rain = 0
KGGS 231825Z 35006KT 19/13 A3001 RMK A01 T01900133  RH  072%=      5-min Rain = 0
KGGS 231830Z 36007KT 19/14 A3001 RMK A01 T01880137  RH  075%=      5-min Rain = 0
KGGS 231835Z 36008KT 18/14 A3001 RMK A01 T01840137  RH  077%=      5-min Rain = 0
KGGS 231840Z 35008KT 18/14 A3001 RMK A01 T01820136  RH  078%=      5-min Rain = 0
KGGS 231845Z 36007KT 18/14 A3001 RMK A01 T01810135  RH  078%=      5-min Rain = 0
KGGS 231850Z 36008KT 18/14 A3001 RMK A01 T01810135  RH  077%=      5-min Rain = 0
KGGS 231855Z 36008KT 18/13 A3001 RMK A01 T01810134  RH  077%=      5-min Rain = 0
KGGS 231900Z 00007KT 18/14 A3001 RMK A01 T01840137  RH  077%=      5-min Rain = 0
KGGS 231905Z 01007KT 19/14 A3001 RMK A01 T01850137  RH  077%=      5-min Rain = 0
KGGS 231910Z 01006KT 18/14 A3001 RMK A01 T01840137  RH  077%=      5-min Rain = 0
KGGS 231915Z 01007KT 18/14 A3001 RMK A01 T01830136  RH  077%=      5-min Rain = 0
KGGS 231920Z 01007KT 19/14 A3001 RMK A01 T01850138  RH  077%=      5-min Rain = 0
KGGS 231925Z 02007KT 19/14 A3001 RMK A01 T01870138  RH  077%=      5-min Rain = 0
KGGS 231930Z 01007KT 19/14 A3001 RMK A01 T01880138  RH  076%=      5-min Rain = 0
KGGS 231935Z 01007KT 19/14 A30 RMK A01 T01870137  RH  076%=      5-min Rain = 0
KGGS 231940Z 01008KT 19/14 A30 RMK A01 T01860137  RH  076%=      5-min Rain = 0
KGGS 231945Z 01009KT 19/14 A30 RMK A01 T01870137  RH  076%=      5-min Rain = 0
KGGS 231950Z 02008KT 19/14 A30 RMK A01 T01890137  RH  075%=      5-min Rain = 0
KGGS 231955Z 03006KT 19/14 A30 RMK A01 T01910139  RH  075%=      5-min Rain = 0
KGGS 232000Z 03008KT 19/14 A30 RMK A01 T01930140  RH  074%=      5-min Rain = 0
KGGS 232005Z 04008KT 20/14 A2999 RMK A01 T01950139  RH  073%=      5-min Rain = 0
KGGS 232010Z 04009KT 20/14 A2999 RMK A01 T01970139  RH  072%=      5-min Rain = 0
KGGS 232015Z 05009KT 20/14 A2999 RMK A01 T01970138  RH  071%=      5-min Rain = 0
KGGS 232020Z 05008G13KT 20/14 A2999 RMK A01 T02030142  RH  071%=      5-min Rain = 0
KGGS 232025Z 04008KT 20/14 A2999 RMK A01 T02040143  RH  071%=      5-min Rain = 0
KGGS 232030Z 04008KT 21/14 A2999 RMK A01 T02070142  RH  069%=      5-min Rain = 0
KGGS 232035Z 05008KT 21/14 A2998 RMK A01 T02060140  RH  069%=      5-min Rain = 0
KGGS 232040Z 04007KT 21/14 A2998 RMK A01 T02060141  RH  069%=      5-min Rain = 0
KGGS 232045Z 06008KT 20/14 A2998 RMK A01 T02010135  RH  068%=      5-min Rain = 0
KGGS 232050Z 04009KT 20/14 A2998 RMK A01 T02030136  RH  068%=      5-min Rain = 0
KGGS 232055Z 03009KT 20/14 A2998 RMK A01 T02040138  RH  069%=      5-min Rain = 0
KGGS 232100Z 03008KT 20/14 A2997 RMK A01 T02040140  RH  070%=      5-min Rain = 0
KGGS 232105Z 04008KT 21/14 A2997 RMK A01 T02070140  RH  068%=      5-min Rain = 0
KGGS 232110Z 03008G14KT 22/15 A2997 RMK A01 T02170147  RH  068%=      5-min Rain = 0
KGGS 232115Z 04010KT 21/14 A2996 RMK A01 T02050138  RH  068%=      5-min Rain = 0
KGGS 232120Z 02008G13KT 20/14 A2996 RMK A01 T02020137  RH  069%=      5-min Rain = 0
KGGS 232125Z 04008KT 20/14 A2996 RMK A01 T02030138  RH  069%=      5-min Rain = 0
KGGS 232130Z 03009KT 21/14 A2996 RMK A01 T02050138  RH  068%=      5-min Rain = 0
KGGS 232135Z 03010KT 21/14 A2995 RMK A01 T02050140  RH  069%=      5-min Rain = 0
KGGS 232140Z 05008KT 20/14 A2995 RMK A01 T02030138  RH  069%=      5-min Rain = 0
KGGS 232145Z 05008KT 21/14 A2995 RMK A01 T02050139  RH  069%=      5-min Rain = 0
KGGS 232150Z 03009G16KT 21/14 A2994 RMK A01 T02060139  RH  068%=      5-min Rain = 0
KGGS 232155Z 01013KT 19/14 A2995 RMK A01 T01940136  RH  072%=      5-min Rain = 0
KGGS 232200Z 01012KT 19/14 A2995 RMK A01 T01880136  RH  075%=      5-min Rain = 0
KGGS 232205Z 01013KT 19/14 A2995 RMK A01 T01860136  RH  075%=      5-min Rain = 0
KGGS 232210Z 01012KT 18/13 A2995 RMK A01 T01840134  RH  076%=      5-min Rain = 0
KGGS 232215Z 01011G16KT 18/14 A2995 RMK A01 T01840135  RH  076%=      5-min Rain = 0
KGGS 232220Z 01013KT 19/13 A2994 RMK A01 T01850134  RH  075%=      5-min Rain = 0
KGGS 232225Z 01013G20KT 19/13 A2994 RMK A01 T01850133  RH  075%=      5-min Rain = 0
KGGS 232230Z 01016KT 18/13 A2993 RMK A01 T01840131  RH  074%=      5-min Rain = 0
KGGS 232235Z 00016G21KT 19/13 A2993 RMK A01 T01850132  RH  074%=      5-min Rain = 0
KGGS 232240Z 01014G20KT 19/13 A2993 RMK A01 T01850133  RH  074%=      5-min Rain = 0
KGGS 232245Z 01016G24KT 18/13 A2994 RMK A01 T01770131  RH  077%=      5-min Rain = 0
KGGS 232250Z 01016G22KT 17/13 A2995 RMK A01 T01690131  RH  082%=      5-min Rain = 0
KGGS 232255Z 01017KT 16/13 A2994 RMK A01 T01640131  RH  084%=      5-min Rain = 0
KGGS 232300Z 02017G23KT 16/13 A2994 RMK A01 T01630130  RH  084%=      5-min Rain = 0
KGGS 232305Z 02015KT 16/13 A2995 RMK A01 T01620129  RH  084%=      5-min Rain = 0
KGGS 232310Z 03017KT 16/13 A2995 RMK A01 T01600127  RH  084%=      5-min Rain = 0
KGGS 232315Z 03017G22KT 16/13 A2995 RMK A01 T01560126  RH  085%=      5-min Rain = 0
KGGS 232320Z 02015KT 15/13 A2996 RMK A01 T01540126  RH  087%=      5-min Rain = 0
KGGS 232325Z 02014KT 15/13 A2996 RMK A01 T01510125  RH  088%=      5-min Rain = 0
KGGS 232330Z 03016G21KT 15/12 A2995 RMK A01 T01490124  RH  088%=      5-min Rain = 0
KGGS 232335Z 01016G21KT 15/12 A2995 RMK A01 T01470123  RH  089%=      5-min Rain = 0
KGGS 232340Z 00016G21KT 14/12 A2996 RMK A01 T01440121  RH  089%=      5-min Rain = 0
KGGS 232345Z 01011KT 14/12 A2997 RMK A01 T01430122  RH  090%=      5-min Rain = 0.01
KGGS 232350Z 01016KT 14/12 A2997 RMK A01 T01420121  RH  090%=      5-min Rain = 0
KGGS 232355Z 01016KT 14/12 A2996 RMK A01 T01410121  RH  091%=      5-min Rain = 0
KGGS 240000Z 36014KT 14/12 A2996 RMK A01 T01410121  RH  091%=      5-min Rain = 0
KGGS 240005Z 00014G19KT 14/12 A2996 RMK A01 T01410121  RH  091%=      5-min Rain = 0
KGGS 240010Z 01012G17KT 14/12 A2997 RMK A01 T01410121  RH  091%=      5-min Rain = 0
KGGS 240015Z 01012G18KT 14/12 A2998 RMK A01 T01420122  RH  092%=      5-min Rain = 0
KGGS 240020Z 00013KT 14/12 A2998 RMK A01 T01410122  RH  091%=      5-min Rain = 0
KGGS 240025Z 00012KT 14/12 A2999 RMK A01 T01420122  RH  091%=      5-min Rain = 0
KGGS 240030Z 01013G18KT 14/12 A2998 RMK A01 T01420123  RH  091%=      5-min Rain = 0
KGGS 240035Z 01015KT 14/12 A2998 RMK A01 T01400121  RH  091%=      5-min Rain = 0
KGGS 240040Z 01015KT 14/12 A2997 RMK A01 T01400120  RH  091%=      5-min Rain = 0
KGGS 240045Z 02013G19KT 14/12 A2997 RMK A01 T01390119  RH  091%=      5-min Rain = 0
KGGS 240050Z 03013KT 14/12 A2998 RMK A01 T01380119  RH  091%=      5-min Rain = 0
KGGS 240055Z 02011G16KT 14/12 A2998 RMK A01 T01380119  RH  091%=      5-min Rain = 0
KGGS 240100Z 02010G15KT 14/12 A2998 RMK A01 T01390119  RH  091%=      5-min Rain = 0
KGGS 240105Z 01012G18KT 14/12 A2998 RMK A01 T01380119  RH  091%=      5-min Rain = 0
KGGS 240110Z 02015KT 14/12 A2998 RMK A01 T01370117  RH  091%=      5-min Rain = 0
KGGS 240115Z 02014G19KT 14/12 A2998 RMK A01 T01360117  RH  091%=      5-min Rain = 0
KGGS 240120Z 02012KT 14/12 A2998 RMK A01 T01370117  RH  091%=      5-min Rain = 0
KGGS 240125Z 01012G17KT 14/12 A2998 RMK A01 T01360117  RH  091%=      5-min Rain = 0
KGGS 240130Z 01012G18KT 14/12 A2998 RMK A01 T01350116  RH  092%=      5-min Rain = 0
KGGS 240135Z 01013G19KT 14/12 A2997 RMK A01 T01350116  RH  092%=      5-min Rain = 0
KGGS 240140Z 01014G19KT 13/12 A2997 RMK A01 T01340116  RH  092%=      5-min Rain = 0
KGGS 240145Z 02012G18KT 13/12 A2997 RMK A01 T01340116  RH  092%=      5-min Rain = 0
KGGS 240150Z 01011KT 13/12 A2998 RMK A01 T01340116  RH  092%=      5-min Rain = 0
KGGS 240155Z 02011KT 13/12 A2998 RMK A01 T01340116  RH  092%=      5-min Rain = 0
KGGS 240200Z 01011G16KT 13/12 A2999 RMK A01 T01340116  RH  092%=      5-min Rain = 0
KGGS 240205Z 01011KT 13/12 A2998 RMK A01 T01340116  RH  092%=      5-min Rain = 0
KGGS 240210Z 01009KT 13/12 A2999 RMK A01 T01340117  RH  092%=      5-min Rain = 0
KGGS 240215Z 02009KT 14/12 A30 RMK A01 T01350117  RH  092%=      5-min Rain = 0
KGGS 240220Z 02008G13KT 14/12 A2999 RMK A01 T01350117  RH  092%=      5-min Rain = 0
KGGS 240225Z 02009KT 14/12 A2999 RMK A01 T01350118  RH  092%=      5-min Rain = 0
KGGS 240230Z 02010KT 14/12 A2999 RMK A01 T01350117  RH  092%=      5-min Rain = 0
KGGS 240235Z 03010KT 14/12 A2999 RMK A01 T01350117  RH  092%=      5-min Rain = 0
KGGS 240240Z 02011G16KT 14/12 A2999 RMK A01 T01350117  RH  092%=      5-min Rain = 0
KGGS 240245Z 01012KT 14/12 A2999 RMK A01 T01350117  RH  092%=      5-min Rain = 0
KGGS 240250Z 01012G17KT 14/12 A30 RMK A01 T01350116  RH  092%=      5-min Rain = 0
KGGS 240255Z 01012G17KT 14/12 A30 RMK A01 T01350116  RH  092%=      5-min Rain = 0
KGGS 240300Z 01012KT 13/12 A2999 RMK A01 T01340115  RH  091%=      5-min Rain = 0
KGGS 240305Z 00012KT 13/11 A2999 RMK A01 T01340114  RH  091%=      5-min Rain = 0
KGGS 240310Z 01011G17KT 13/11 A2999 RMK A01 T01340114  RH  091%=      5-min Rain = 0
KGGS 240315Z 00010KT 13/11 A30 RMK A01 T01330114  RH  091%=      5-min Rain = 0
KGGS 240320Z 02008G13KT 13/11 A2999 RMK A01 T01330114  RH  092%=      5-min Rain = 0
KGGS 240325Z 00008KT 13/12 A30 RMK A01 T01330115  RH  092%=      5-min Rain = 0
KGGS 240330Z 00007KT 13/12 A3002 RMK A01 T01330115  RH  092%=      5-min Rain = 0
KGGS 240335Z 03008KT 13/12 A3001 RMK A01 T01330115  RH  092%=      5-min Rain = 0
KGGS 240340Z 02010KT 13/12 A3002 RMK A01 T01330115  RH  092%=      5-min Rain = 0
KGGS 240345Z 04008KT 13/12 A3003 RMK A01 T01340115  RH  091%=      5-min Rain = 0
KGGS 240350Z 03005KT 13/12 A3005 RMK A01 T01340115  RH  091%=      5-min Rain = 0
KGGS 240355Z 02007KT 14/12 A3005 RMK A01 T01350115  RH  091%=      5-min Rain = 0
KGGS 240400Z 06009KT 14/12 A3004 RMK A01 T01350115  RH  091%=      5-min Rain = 0.01
KGGS 240405Z 08005G11KT 14/12 A3004 RMK A01 T01350115  RH  091%=      5-min Rain = 0
KGGS 240410Z 30004KT 13/12 A3005 RMK A01 T01340115  RH  091%=      5-min Rain = 0
KGGS 240415Z 01004KT 13/12 A3003 RMK A01 T01330115  RH  092%=      5-min Rain = 0.01
KGGS 240420Z 03008KT 13/12 A3001 RMK A01 T01330115  RH  092%=      5-min Rain = 0
KGGS 240425Z 04012G17KT 13/11 A2999 RMK A01 T01320114  RH  092%=      5-min Rain = 0
KGGS 240430Z 03012KT 13/11 A2998 RMK A01 T01320113  RH  092%=      5-min Rain = 0
KGGS 240435Z 01010KT 13/11 A2998 RMK A01 T01310113  RH  092%=      5-min Rain = 0
KGGS 240440Z 00010KT 13/11 A2999 RMK A01 T01310113  RH  092%=      5-min Rain = 0
KGGS 240445Z 36009KT 13/11 A30 RMK A01 T01310113  RH  092%=      5-min Rain = 0
KGGS 240450Z 35008KT 13/11 A3001 RMK A01 T01310113  RH  092%=      5-min Rain = 0
KGGS 240455Z 34005KT 13/11 A3001 RMK A01 T01310113  RH  092%=      5-min Rain = 0

Page generated in 0.0092 seconds.